This is the latest recevied weather packets stored in our database for station/object KJ4EBE. If no packets are shown the sender has not sent any weather packets the latest 10 day(s).
| Time | Temp. | Humidity | Pressure | Rain* | Wind** | Luminosity | Snow |
|---|---|---|---|---|---|---|---|
| 1777587802 | 16.67° C | 99% | 1012.1 hPa | 0.51 mm | - | 45 W/m² | - |
| 1777587502 | 16.67° C | 99% | 1011.9 hPa | 0 mm | - | 42 W/m² | - |
| 1777587198 | 16.67° C | 99% | 1011.9 hPa | 0 mm | - | 29 W/m² | - |
| 1777586894 | 16.67° C | 99% | 1011.5 hPa | 0 mm | - | 30 W/m² | - |
| 1777586590 | 16.67° C | 99% | 1011.8 hPa | 0 mm | - | 44 W/m² | - |
| 1777586285 | 16.67° C | 99% | 1012 hPa | 0 mm | - | 44 W/m² | - |
| 1777585983 | 16.67° C | 99% | 1011.6 hPa | 0 mm | - | 33 W/m² | - |
| 1777585678 | 16.67° C | 99% | 1011.4 hPa | 0 mm | - | 32 W/m² | - |
| 1777585373 | 16.67° C | 99% | 1010.8 hPa | 0 mm | - | 39 W/m² | - |
| 1777585068 | 16.67° C | 99% | 1010.5 hPa | 0 mm | - | 54 W/m² | - |
| 1777584764 | 16.67° C | 99% | 1010.4 hPa | 0 mm | - | 54 W/m² | - |
| 1777584462 | 16.67° C | 99% | 1010.7 hPa | 0 mm | - | 57 W/m² | - |
| 1777584159 | 16.67° C | 99% | 1011.3 hPa | 0 mm | - | 44 W/m² | - |
| 1777583858 | 17.78° C | 99% | 1011.3 hPa | 0 mm | - | 32 W/m² | - |
| 1777583554 | 17.22° C | 99% | 1010.6 hPa | 0 mm | - | 112 W/m² | - |
| 1777583253 | 17.22° C | 99% | 1010.7 hPa | 0 mm | - | 108 W/m² | - |
| 1777582953 | 17.78° C | 99% | 1011 hPa | 0 mm | - | 110 W/m² | - |
| 1777582651 | 17.78° C | 99% | 1010.8 hPa | 0 mm | - | 133 W/m² | - |
| 1777582351 | 17.22° C | 99% | 1010.6 hPa | 0 mm | - | 113 W/m² | - |
| 1777582049 | 17.78° C | 99% | 1010.7 hPa | 0 mm | - | 88 W/m² | - |
| 1777581744 | 17.22° C | 99% | 1010.6 hPa | 0 mm | - | 148 W/m² | - |
| 1777581443 | 17.78° C | 99% | 1010.5 hPa | 1.27 mm | - | 161 W/m² | - |
| 1777581138 | 17.78° C | 99% | 1010.1 hPa | 3.56 mm | - | 297 W/m² | - |
| 1777580833 | 17.22° C | 99% | 1010.7 hPa | 5.33 mm | - | 151 W/m² | - |
| 1777580529 | 17.22° C | 99% | 1012.2 hPa | 4.83 mm | - | 82 W/m² | - |
* Rain latest hour (hover to see other rain measurements)
** Current wind speed in m/s (hover to see current wind gust speed)